Terminal Aerodrome Forecast
Issued by NWS

Home | Current Version | Previous Version | Text Only | Print | Product List | Glossary On
Versions: 1 2 3 4 5 6 7 8 9 10 11 12 13
000
FTUS45 KRIW 280522
TAFBPI
TAF
KBPI 280522Z 2806/2906 35007KT P6SM VCSH SCT030 BKN050
     FM281000 35011KT P6SM SCT030 BKN050
     FM281700 35015G25KT P6SM SCT040 BKN080
     FM282300 35013KT P6SM SCT060
     FM290400 34006KT P6SM FEW080=

USA.gov is the U.S. government's official web portal to all federal, state and local government web resources and services.